sensor_id;sensor_type;location;lat;lon;timestamp;P1;durP1;ratioP1;P2;durP2;ratioP2
3379;SDS011;1703;51.964;7.642;2023-06-14T00:01:02;5.47;;;4.00;;
3379;SDS011;1703;51.964;7.642;2023-06-14T00:03:31;6.93;;;3.50;;
3379;SDS011;1703;51.964;7.642;2023-06-14T00:05:58;4.47;;;3.70;;
3379;SDS011;1703;51.964;7.642;2023-06-14T00:08:26;3.70;;;3.00;;
3379;SDS011;1703;51.964;7.642;2023-06-14T00:10:53;6.43;;;3.70;;
3379;SDS011;1703;51.964;7.642;2023-06-14T00:13:20;8.20;;;3.70;;
3379;SDS011;1703;51.964;7.642;2023-06-14T00:15:47;6.23;;;4.03;;
3379;SDS011;1703;51.964;7.642;2023-06-14T00:18:13;9.57;;;3.23;;
3379;SDS011;1703;51.964;7.642;2023-06-14T00:20:41;4.87;;;3.53;;
3379;SDS011;1703;51.964;7.642;2023-06-14T00:23:08;3.27;;;2.97;;
3379;SDS011;1703;51.964;7.642;2023-06-14T00:25:36;4.80;;;3.60;;
3379;SDS011;1703;51.964;7.642;2023-06-14T00:28:03;4.60;;;3.07;;
3379;SDS011;1703;51.964;7.642;2023-06-14T00:30:30;2.90;;;2.60;;
3379;SDS011;1703;51.964;7.642;2023-06-14T00:32:57;4.00;;;2.80;;
3379;SDS011;1703;51.964;7.642;2023-06-14T00:35:24;4.90;;;3.23;;
3379;SDS011;1703;51.964;7.642;2023-06-14T00:37:52;3.90;;;3.50;;
3379;SDS011;1703;51.964;7.642;2023-06-14T00:40:20;4.03;;;2.90;;
3379;SDS011;1703;51.964;7.642;2023-06-14T00:42:48;4.27;;;3.10;;
3379;SDS011;1703;51.964;7.642;2023-06-14T00:45:15;3.67;;;3.37;;
3379;SDS011;1703;51.964;7.642;2023-06-14T00:47:42;3.30;;;2.90;;
3379;SDS011;1703;51.964;7.642;2023-06-14T00:50:09;9.30;;;3.67;;
3379;SDS011;1703;51.964;7.642;2023-06-14T00:52:38;3.37;;;2.47;;
3379;SDS011;1703;51.964;7.642;2023-06-14T00:55:06;3.47;;;3.17;;
3379;SDS011;1703;51.964;7.642;2023-06-14T00:57:33;9.03;;;3.50;;
3379;SDS011;1703;51.964;7.642;2023-06-14T01:00:04;4.40;;;2.80;;
3379;SDS011;1703;51.964;7.642;2023-06-14T01:02:34;8.13;;;2.80;;
3379;SDS011;1703;51.964;7.642;2023-06-14T01:05:01;3.10;;;2.77;;
3379;SDS011;1703;51.964;7.642;2023-06-14T01:07:31;4.67;;;2.73;;
3379;SDS011;1703;51.964;7.642;2023-06-14T01:10:12;5.87;;;3.10;;
3379;SDS011;1703;51.964;7.642;2023-06-14T01:12:48;3.83;;;3.13;;
3379;SDS011;1703;51.964;7.642;2023-06-14T01:15:22;7.53;;;2.90;;
3379;SDS011;1703;51.964;7.642;2023-06-14T01:17:50;9.23;;;2.57;;
3379;SDS011;1703;51.964;7.642;2023-06-14T01:20:19;7.70;;;2.70;;
3379;SDS011;1703;51.964;7.642;2023-06-14T01:22:53;8.10;;;3.03;;
3379;SDS011;1703;51.964;7.642;2023-06-14T01:25:20;5.30;;;3.17;;
3379;SDS011;1703;51.964;7.642;2023-06-14T01:27:48;7.87;;;2.80;;
3379;SDS011;1703;51.964;7.642;2023-06-14T01:30:17;7.90;;;2.80;;
3379;SDS011;1703;51.964;7.642;2023-06-14T01:32:46;5.67;;;2.93;;
3379;SDS011;1703;51.964;7.642;2023-06-14T01:35:15;3.10;;;2.60;;
3379;SDS011;1703;51.964;7.642;2023-06-14T01:37:42;2.50;;;2.30;;
3379;SDS011;1703;51.964;7.642;2023-06-14T01:40:12;3.37;;;2.80;;
3379;SDS011;1703;51.964;7.642;2023-06-14T01:42:41;2.80;;;2.50;;
3379;SDS011;1703;51.964;7.642;2023-06-14T01:45:10;6.63;;;2.40;;
3379;SDS011;1703;51.964;7.642;2023-06-14T01:47:37;11.87;;;3.40;;
3379;SDS011;1703;51.964;7.642;2023-06-14T01:50:06;4.03;;;2.40;;
3379;SDS011;1703;51.964;7.642;2023-06-14T01:52:33;9.23;;;2.70;;
3379;SDS011;1703;51.964;7.642;2023-06-14T01:55:02;4.07;;;2.83;;
3379;SDS011;1703;51.964;7.642;2023-06-14T01:57:30;3.40;;;2.50;;
3379;SDS011;1703;51.964;7.642;2023-06-14T01:59:58;6.77;;;2.97;;
3379;SDS011;1703;51.964;7.642;2023-06-14T02:02:25;4.63;;;3.33;;
3379;SDS011;1703;51.964;7.642;2023-06-14T02:04:52;6.77;;;3.50;;
3379;SDS011;1703;51.964;7.642;2023-06-14T02:07:22;6.60;;;2.67;;
3379;SDS011;1703;51.964;7.642;2023-06-14T02:09:50;7.73;;;3.07;;
3379;SDS011;1703;51.964;7.642;2023-06-14T02:12:17;4.87;;;2.80;;
3379;SDS011;1703;51.964;7.642;2023-06-14T02:14:45;9.30;;;3.60;;
3379;SDS011;1703;51.964;7.642;2023-06-14T02:17:13;3.07;;;2.77;;
3379;SDS011;1703;51.964;7.642;2023-06-14T02:19:41;3.67;;;3.33;;
3379;SDS011;1703;51.964;7.642;2023-06-14T02:22:08;3.07;;;2.87;;
3379;SDS011;1703;51.964;7.642;2023-06-14T02:24:35;2.90;;;2.57;;
3379;SDS011;1703;51.964;7.642;2023-06-14T02:27:06;14.93;;;2.90;;
3379;SDS011;1703;51.964;7.642;2023-06-14T02:29:35;8.70;;;2.77;;
3379;SDS011;1703;51.964;7.642;2023-06-14T02:32:04;7.33;;;3.00;;
3379;SDS011;1703;51.964;7.642;2023-06-14T02:34:32;5.80;;;2.70;;
3379;SDS011;1703;51.964;7.642;2023-06-14T02:37:00;4.00;;;2.23;;
3379;SDS011;1703;51.964;7.642;2023-06-14T02:39:28;6.20;;;2.60;;
3379;SDS011;1703;51.964;7.642;2023-06-14T02:41:54;3.53;;;2.60;;
3379;SDS011;1703;51.964;7.642;2023-06-14T02:44:23;5.20;;;3.30;;
3379;SDS011;1703;51.964;7.642;2023-06-14T02:46:52;7.03;;;2.73;;
3379;SDS011;1703;51.964;7.642;2023-06-14T02:49:20;4.20;;;3.10;;
3379;SDS011;1703;51.964;7.642;2023-06-14T02:51:47;3.17;;;2.50;;
3379;SDS011;1703;51.964;7.642;2023-06-14T02:54:14;3.40;;;2.57;;
3379;SDS011;1703;51.964;7.642;2023-06-14T02:56:41;2.60;;;2.40;;
3379;SDS011;1703;51.964;7.642;2023-06-14T02:59:08;5.53;;;3.30;;
3379;SDS011;1703;51.964;7.642;2023-06-14T03:01:36;3.33;;;2.93;;
3379;SDS011;1703;51.964;7.642;2023-06-14T03:04:07;3.77;;;2.60;;
3379;SDS011;1703;51.964;7.642;2023-06-14T03:06:38;6.77;;;3.07;;
3379;SDS011;1703;51.964;7.642;2023-06-14T03:09:06;9.70;;;2.60;;
3379;SDS011;1703;51.964;7.642;2023-06-14T03:11:36;5.87;;;3.00;;
3379;SDS011;1703;51.964;7.642;2023-06-14T03:14:03;2.90;;;2.70;;
3379;SDS011;1703;51.964;7.642;2023-06-14T03:16:34;4.90;;;3.03;;
3379;SDS011;1703;51.964;7.642;2023-06-14T03:19:03;8.87;;;2.57;;
3379;SDS011;1703;51.964;7.642;2023-06-14T03:21:31;6.00;;;2.80;;
3379;SDS011;1703;51.964;7.642;2023-06-14T03:24:03;5.93;;;3.17;;
3379;SDS011;1703;51.964;7.642;2023-06-14T03:26:36;3.37;;;2.63;;
3379;SDS011;1703;51.964;7.642;2023-06-14T03:29:03;5.37;;;2.70;;
3379;SDS011;1703;51.964;7.642;2023-06-14T03:31:31;4.57;;;2.90;;
3379;SDS011;1703;51.964;7.642;2023-06-14T03:34:00;3.40;;;2.60;;
3379;SDS011;1703;51.964;7.642;2023-06-14T03:36:27;5.90;;;2.97;;
3379;SDS011;1703;51.964;7.642;2023-06-14T03:38:54;2.73;;;2.50;;
3379;SDS011;1703;51.964;7.642;2023-06-14T03:41:23;3.20;;;2.37;;
3379;SDS011;1703;51.964;7.642;2023-06-14T03:43:52;6.67;;;3.70;;
3379;SDS011;1703;51.964;7.642;2023-06-14T03:46:19;2.93;;;2.60;;
3379;SDS011;1703;51.964;7.642;2023-06-14T03:48:46;4.60;;;2.73;;
3379;SDS011;1703;51.964;7.642;2023-06-14T03:51:13;4.13;;;3.00;;
3379;SDS011;1703;51.964;7.642;2023-06-14T03:53:40;4.60;;;2.43;;
3379;SDS011;1703;51.964;7.642;2023-06-14T03:56:07;6.60;;;2.93;;
3379;SDS011;1703;51.964;7.642;2023-06-14T03:58:41;5.83;;;3.20;;
3379;SDS011;1703;51.964;7.642;2023-06-14T04:01:08;2.03;;;1.93;;
3379;SDS011;1703;51.964;7.642;2023-06-14T04:03:37;4.63;;;2.60;;
3379;SDS011;1703;51.964;7.642;2023-06-14T04:06:05;2.93;;;2.30;;
3379;SDS011;1703;51.964;7.642;2023-06-14T04:08:33;12.37;;;2.80;;
3379;SDS011;1703;51.964;7.642;2023-06-14T04:11:00;2.47;;;2.27;;
3379;SDS011;1703;51.964;7.642;2023-06-14T04:13:27;3.00;;;2.80;;
3379;SDS011;1703;51.964;7.642;2023-06-14T04:15:55;5.03;;;2.53;;
3379;SDS011;1703;51.964;7.642;2023-06-14T04:18:26;3.23;;;2.97;;
3379;SDS011;1703;51.964;7.642;2023-06-14T04:20:54;6.00;;;2.93;;
3379;SDS011;1703;51.964;7.642;2023-06-14T04:23:22;3.40;;;2.77;;
3379;SDS011;1703;51.964;7.642;2023-06-14T04:25:49;3.63;;;2.90;;
3379;SDS011;1703;51.964;7.642;2023-06-14T04:28:17;6.10;;;3.00;;
3379;SDS011;1703;51.964;7.642;2023-06-14T04:30:45;6.07;;;2.40;;
3379;SDS011;1703;51.964;7.642;2023-06-14T04:33:15;4.03;;;2.30;;
3379;SDS011;1703;51.964;7.642;2023-06-14T04:35:43;9.03;;;2.93;;
3379;SDS011;1703;51.964;7.642;2023-06-14T04:38:13;3.53;;;2.70;;
3379;SDS011;1703;51.964;7.642;2023-06-14T04:40:40;6.90;;;2.50;;
3379;SDS011;1703;51.964;7.642;2023-06-14T04:43:10;6.90;;;2.83;;
3379;SDS011;1703;51.964;7.642;2023-06-14T04:45:40;3.33;;;3.03;;
3379;SDS011;1703;51.964;7.642;2023-06-14T04:48:10;6.13;;;2.90;;
3379;SDS011;1703;51.964;7.642;2023-06-14T04:50:38;4.20;;;2.93;;
3379;SDS011;1703;51.964;7.642;2023-06-14T04:53:06;3.67;;;2.80;;
3379;SDS011;1703;51.964;7.642;2023-06-14T04:55:34;3.73;;;2.70;;
3379;SDS011;1703;51.964;7.642;2023-06-14T04:58:02;8.13;;;2.80;;
3379;SDS011;1703;51.964;7.642;2023-06-14T05:00:30;3.67;;;2.33;;
3379;SDS011;1703;51.964;7.642;2023-06-14T05:02:57;2.47;;;2.27;;
3379;SDS011;1703;51.964;7.642;2023-06-14T05:05:26;2.80;;;2.50;;
3379;SDS011;1703;51.964;7.642;2023-06-14T05:07:55;4.37;;;3.20;;
3379;SDS011;1703;51.964;7.642;2023-06-14T05:10:22;3.13;;;1.97;;
3379;SDS011;1703;51.964;7.642;2023-06-14T05:12:48;6.70;;;3.30;;
3379;SDS011;1703;51.964;7.642;2023-06-14T05:15:17;5.80;;;2.53;;
3379;SDS011;1703;51.964;7.642;2023-06-14T05:17:45;6.00;;;2.20;;
3379;SDS011;1703;51.964;7.642;2023-06-14T05:20:18;2.90;;;2.50;;
3379;SDS011;1703;51.964;7.642;2023-06-14T05:22:45;5.43;;;2.97;;
3379;SDS011;1703;51.964;7.642;2023-06-14T05:25:14;2.47;;;2.37;;
3379;SDS011;1703;51.964;7.642;2023-06-14T05:27:41;7.93;;;2.40;;
3379;SDS011;1703;51.964;7.642;2023-06-14T05:30:08;6.43;;;2.00;;
3379;SDS011;1703;51.964;7.642;2023-06-14T05:32:36;2.67;;;2.43;;
3379;SDS011;1703;51.964;7.642;2023-06-14T05:35:03;3.10;;;2.80;;
3379;SDS011;1703;51.964;7.642;2023-06-14T05:37:32;8.60;;;2.50;;
3379;SDS011;1703;51.964;7.642;2023-06-14T05:39:58;2.83;;;2.53;;
3379;SDS011;1703;51.964;7.642;2023-06-14T05:42:26;2.60;;;2.23;;
3379;SDS011;1703;51.964;7.642;2023-06-14T05:44:53;3.83;;;2.33;;
3379;SDS011;1703;51.964;7.642;2023-06-14T05:47:20;3.97;;;2.87;;
3379;SDS011;1703;51.964;7.642;2023-06-14T05:49:47;2.33;;;2.13;;
3379;SDS011;1703;51.964;7.642;2023-06-14T05:52:14;6.70;;;3.50;;
3379;SDS011;1703;51.964;7.642;2023-06-14T05:54:41;3.93;;;2.73;;
3379;SDS011;1703;51.964;7.642;2023-06-14T05:57:08;2.93;;;2.60;;
3379;SDS011;1703;51.964;7.642;2023-06-14T05:59:37;6.23;;;2.30;;
3379;SDS011;1703;51.964;7.642;2023-06-14T06:02:04;4.77;;;3.23;;
3379;SDS011;1703;51.964;7.642;2023-06-14T06:04:31;4.20;;;3.00;;
3379;SDS011;1703;51.964;7.642;2023-06-14T06:06:57;2.47;;;2.00;;
3379;SDS011;1703;51.964;7.642;2023-06-14T06:09:24;6.30;;;2.17;;
3379;SDS011;1703;51.964;7.642;2023-06-14T06:11:51;4.60;;;2.00;;
3379;SDS011;1703;51.964;7.642;2023-06-14T06:14:18;6.53;;;2.83;;
3379;SDS011;1703;51.964;7.642;2023-06-14T06:16:47;8.40;;;2.17;;
3379;SDS011;1703;51.964;7.642;2023-06-14T06:19:14;7.07;;;2.53;;
3379;SDS011;1703;51.964;7.642;2023-06-14T06:21:41;2.80;;;2.40;;
3379;SDS011;1703;51.964;7.642;2023-06-14T06:24:07;4.83;;;1.90;;
3379;SDS011;1703;51.964;7.642;2023-06-14T06:26:34;3.40;;;2.37;;
3379;SDS011;1703;51.964;7.642;2023-06-14T06:29:01;5.03;;;2.37;;
3379;SDS011;1703;51.964;7.642;2023-06-14T06:31:28;7.23;;;2.10;;
3379;SDS011;1703;51.964;7.642;2023-06-14T06:33:56;13.60;;;2.27;;
3379;SDS011;1703;51.964;7.642;2023-06-14T06:36:23;2.83;;;2.33;;
3379;SDS011;1703;51.964;7.642;2023-06-14T06:38:50;5.73;;;2.57;;
3379;SDS011;1703;51.964;7.642;2023-06-14T06:41:18;3.63;;;1.97;;
3379;SDS011;1703;51.964;7.642;2023-06-14T06:43:45;2.87;;;2.37;;
3379;SDS011;1703;51.964;7.642;2023-06-14T06:46:13;2.20;;;2.00;;
3379;SDS011;1703;51.964;7.642;2023-06-14T06:48:40;6.33;;;2.00;;
3379;SDS011;1703;51.964;7.642;2023-06-14T06:51:08;1.70;;;1.60;;
3379;SDS011;1703;51.964;7.642;2023-06-14T06:53:35;3.80;;;2.07;;
3379;SDS011;1703;51.964;7.642;2023-06-14T06:56:02;2.53;;;2.33;;
3379;SDS011;1703;51.964;7.642;2023-06-14T06:58:29;4.03;;;2.50;;
3379;SDS011;1703;51.964;7.642;2023-06-14T07:00:56;2.03;;;1.90;;
3379;SDS011;1703;51.964;7.642;2023-06-14T07:03:23;1.53;;;1.43;;
3379;SDS011;1703;51.964;7.642;2023-06-14T07:05:50;3.20;;;2.03;;
3379;SDS011;1703;51.964;7.642;2023-06-14T07:08:18;2.20;;;1.73;;
3379;SDS011;1703;51.964;7.642;2023-06-14T07:10:45;2.47;;;1.50;;
3379;SDS011;1703;51.964;7.642;2023-06-14T07:13:11;2.30;;;2.10;;
3379;SDS011;1703;51.964;7.642;2023-06-14T07:15:39;4.90;;;1.80;;
3379;SDS011;1703;51.964;7.642;2023-06-14T07:18:05;1.97;;;1.77;;
3379;SDS011;1703;51.964;7.642;2023-06-14T07:20:33;6.00;;;1.60;;
3379;SDS011;1703;51.964;7.642;2023-06-14T07:23:00;3.10;;;2.47;;
3379;SDS011;1703;51.964;7.642;2023-06-14T07:25:28;2.20;;;2.00;;
3379;SDS011;1703;51.964;7.642;2023-06-14T07:27:55;2.00;;;1.80;;
3379;SDS011;1703;51.964;7.642;2023-06-14T07:30:22;3.73;;;1.47;;
3379;SDS011;1703;51.964;7.642;2023-06-14T07:32:51;2.90;;;2.00;;
3379;SDS011;1703;51.964;7.642;2023-06-14T07:35:17;2.63;;;1.87;;
3379;SDS011;1703;51.964;7.642;2023-06-14T07:37:44;6.00;;;1.40;;
3379;SDS011;1703;51.964;7.642;2023-06-14T07:40:12;2.60;;;1.40;;
3379;SDS011;1703;51.964;7.642;2023-06-14T07:42:40;1.57;;;1.47;;
3379;SDS011;1703;51.964;7.642;2023-06-14T07:45:08;2.80;;;1.50;;
3379;SDS011;1703;51.964;7.642;2023-06-14T07:47:35;1.90;;;1.40;;
3379;SDS011;1703;51.964;7.642;2023-06-14T07:50:02;3.27;;;1.43;;
3379;SDS011;1703;51.964;7.642;2023-06-14T07:52:31;3.37;;;1.80;;
3379;SDS011;1703;51.964;7.642;2023-06-14T07:54:58;5.73;;;1.80;;
3379;SDS011;1703;51.964;7.642;2023-06-14T07:57:25;6.60;;;2.13;;
3379;SDS011;1703;51.964;7.642;2023-06-14T07:59:53;6.27;;;1.77;;
3379;SDS011;1703;51.964;7.642;2023-06-14T08:02:20;3.20;;;1.90;;
3379;SDS011;1703;51.964;7.642;2023-06-14T08:04:47;2.40;;;2.20;;
3379;SDS011;1703;51.964;7.642;2023-06-14T08:07:14;2.00;;;1.90;;
3379;SDS011;1703;51.964;7.642;2023-06-14T08:09:41;3.67;;;2.10;;
3379;SDS011;1703;51.964;7.642;2023-06-14T08:12:08;3.53;;;1.60;;
3379;SDS011;1703;51.964;7.642;2023-06-14T08:14:35;9.27;;;1.30;;
3379;SDS011;1703;51.964;7.642;2023-06-14T08:17:04;2.30;;;1.43;;
3379;SDS011;1703;51.964;7.642;2023-06-14T08:19:31;1.53;;;1.43;;
3379;SDS011;1703;51.964;7.642;2023-06-14T08:21:58;2.17;;;1.73;;
3379;SDS011;1703;51.964;7.642;2023-06-14T08:24:25;1.90;;;1.53;;
3379;SDS011;1703;51.964;7.642;2023-06-14T08:26:52;1.43;;;1.33;;
3379;SDS011;1703;51.964;7.642;2023-06-14T08:29:19;1.73;;;1.63;;
3379;SDS011;1703;51.964;7.642;2023-06-14T08:31:46;1.90;;;1.80;;
3379;SDS011;1703;51.964;7.642;2023-06-14T08:34:15;1.57;;;1.47;;
3379;SDS011;1703;51.964;7.642;2023-06-14T08:36:42;2.70;;;1.27;;
3379;SDS011;1703;51.964;7.642;2023-06-14T08:39:08;1.17;;;1.07;;
3379;SDS011;1703;51.964;7.642;2023-06-14T08:41:36;4.97;;;1.40;;
3379;SDS011;1703;51.964;7.642;2023-06-14T08:44:03;3.30;;;1.37;;
3379;SDS011;1703;51.964;7.642;2023-06-14T08:46:32;8.60;;;1.87;;
3379;SDS011;1703;51.964;7.642;2023-06-14T08:49:00;1.77;;;1.67;;
3379;SDS011;1703;51.964;7.642;2023-06-14T08:51:29;2.50;;;2.30;;
3379;SDS011;1703;51.964;7.642;2023-06-14T08:53:59;1.97;;;1.10;;
3379;SDS011;1703;51.964;7.642;2023-06-14T08:56:27;16.47;;;3.90;;
3379;SDS011;1703;51.964;7.642;2023-06-14T08:58:55;5.30;;;1.83;;
3379;SDS011;1703;51.964;7.642;2023-06-14T09:01:25;2.37;;;2.17;;
3379;SDS011;1703;51.964;7.642;2023-06-14T09:03:52;2.83;;;1.60;;
3379;SDS011;1703;51.964;7.642;2023-06-14T09:06:22;3.60;;;1.87;;
3379;SDS011;1703;51.964;7.642;2023-06-14T09:08:51;3.80;;;1.57;;
3379;SDS011;1703;51.964;7.642;2023-06-14T09:11:19;1.93;;;1.27;;
3379;SDS011;1703;51.964;7.642;2023-06-14T09:13:46;1.40;;;1.27;;
3379;SDS011;1703;51.964;7.642;2023-06-14T09:16:13;5.60;;;1.50;;
3379;SDS011;1703;51.964;7.642;2023-06-14T09:18:41;2.60;;;1.20;;
3379;SDS011;1703;51.964;7.642;2023-06-14T09:21:09;2.80;;;1.30;;
3379;SDS011;1703;51.964;7.642;2023-06-14T09:23:37;9.43;;;1.73;;
3379;SDS011;1703;51.964;7.642;2023-06-14T09:26:07;1.93;;;1.60;;
3379;SDS011;1703;51.964;7.642;2023-06-14T09:28:35;1.40;;;1.30;;
3379;SDS011;1703;51.964;7.642;2023-06-14T09:31:02;4.30;;;1.50;;
3379;SDS011;1703;51.964;7.642;2023-06-14T09:33:30;6.30;;;1.97;;
3379;SDS011;1703;51.964;7.642;2023-06-14T09:35:57;4.03;;;1.00;;
3379;SDS011;1703;51.964;7.642;2023-06-14T09:38:25;2.67;;;1.47;;
3379;SDS011;1703;51.964;7.642;2023-06-14T09:40:52;3.27;;;1.30;;
3379;SDS011;1703;51.964;7.642;2023-06-14T09:43:23;1.60;;;1.23;;
3379;SDS011;1703;51.964;7.642;2023-06-14T09:45:52;1.40;;;1.30;;
3379;SDS011;1703;51.964;7.642;2023-06-14T09:48:20;2.70;;;1.60;;
3379;SDS011;1703;51.964;7.642;2023-06-14T09:50:47;6.40;;;1.63;;
3379;SDS011;1703;51.964;7.642;2023-06-14T09:53:16;4.93;;;1.20;;
3379;SDS011;1703;51.964;7.642;2023-06-14T09:55:49;4.30;;;1.50;;
3379;SDS011;1703;51.964;7.642;2023-06-14T09:58:19;3.10;;;1.20;;
3379;SDS011;1703;51.964;7.642;2023-06-14T10:00:50;2.23;;;1.00;;
3379;SDS011;1703;51.964;7.642;2023-06-14T10:03:20;3.17;;;1.50;;
3379;SDS011;1703;51.964;7.642;2023-06-14T10:05:50;2.43;;;1.60;;
3379;SDS011;1703;51.964;7.642;2023-06-14T10:08:18;1.60;;;1.50;;
3379;SDS011;1703;51.964;7.642;2023-06-14T10:10:49;1.90;;;1.73;;
3379;SDS011;1703;51.964;7.642;2023-06-14T10:13:16;10.83;;;2.13;;
3379;SDS011;1703;51.964;7.642;2023-06-14T10:15:47;4.67;;;1.70;;
3379;SDS011;1703;51.964;7.642;2023-06-14T10:18:23;2.00;;;1.53;;
3379;SDS011;1703;51.964;7.642;2023-06-14T10:21:00;1.63;;;1.47;;
3379;SDS011;1703;51.964;7.642;2023-06-14T10:23:35;3.43;;;1.60;;
3379;SDS011;1703;51.964;7.642;2023-06-14T10:26:06;1.53;;;1.40;;
3379;SDS011;1703;51.964;7.642;2023-06-14T10:28:34;23.33;;;2.23;;
3379;SDS011;1703;51.964;7.642;2023-06-14T10:31:06;2.63;;;1.53;;
3379;SDS011;1703;51.964;7.642;2023-06-14T10:33:34;6.87;;;1.73;;
3379;SDS011;1703;51.964;7.642;2023-06-14T10:36:24;2.80;;;1.43;;
3379;SDS011;1703;51.964;7.642;2023-06-14T10:39:04;6.67;;;1.40;;
3379;SDS011;1703;51.964;7.642;2023-06-14T10:41:34;2.00;;;1.50;;
3379;SDS011;1703;51.964;7.642;2023-06-14T10:46:59;2.90;;;1.80;;
3379;SDS011;1703;51.964;7.642;2023-06-14T10:49:37;4.00;;;2.10;;
3379;SDS011;1703;51.964;7.642;2023-06-14T10:52:09;3.87;;;1.73;;
3379;SDS011;1703;51.964;7.642;2023-06-14T10:55:01;3.83;;;1.67;;
3379;SDS011;1703;51.964;7.642;2023-06-14T10:57:31;3.00;;;1.70;;
3379;SDS011;1703;51.964;7.642;2023-06-14T10:59:58;10.90;;;2.17;;
3379;SDS011;1703;51.964;7.642;2023-06-14T11:02:39;3.07;;;1.17;;
3379;SDS011;1703;51.964;7.642;2023-06-14T11:05:25;2.00;;;1.57;;
3379;SDS011;1703;51.964;7.642;2023-06-14T11:07:57;4.10;;;1.63;;
3379;SDS011;1703;51.964;7.642;2023-06-14T11:10:39;5.50;;;1.90;;
3379;SDS011;1703;51.964;7.642;2023-06-14T11:13:07;6.20;;;1.90;;
3379;SDS011;1703;51.964;7.642;2023-06-14T11:15:34;1.87;;;1.70;;
3379;SDS011;1703;51.964;7.642;2023-06-14T11:18:04;2.60;;;1.77;;
3379;SDS011;1703;51.964;7.642;2023-06-14T11:20:32;2.67;;;1.80;;
3379;SDS011;1703;51.964;7.642;2023-06-14T11:23:00;2.30;;;1.80;;
3379;SDS011;1703;51.964;7.642;2023-06-14T11:25:27;2.77;;;1.37;;
3379;SDS011;1703;51.964;7.642;2023-06-14T11:27:55;3.83;;;1.77;;
3379;SDS011;1703;51.964;7.642;2023-06-14T11:30:22;2.80;;;1.57;;
3379;SDS011;1703;51.964;7.642;2023-06-14T11:32:51;3.70;;;1.87;;
3379;SDS011;1703;51.964;7.642;2023-06-14T11:35:21;9.53;;;1.83;;
3379;SDS011;1703;51.964;7.642;2023-06-14T11:37:49;6.63;;;1.60;;
3379;SDS011;1703;51.964;7.642;2023-06-14T11:40:18;6.17;;;2.00;;
3379;SDS011;1703;51.964;7.642;2023-06-14T11:42:45;4.43;;;1.60;;
3379;SDS011;1703;51.964;7.642;2023-06-14T11:45:12;1.90;;;1.53;;
3379;SDS011;1703;51.964;7.642;2023-06-14T11:47:39;3.07;;;1.57;;
3379;SDS011;1703;51.964;7.642;2023-06-14T11:50:07;2.77;;;1.93;;
3379;SDS011;1703;51.964;7.642;2023-06-14T11:52:36;3.03;;;1.50;;
3379;SDS011;1703;51.964;7.642;2023-06-14T11:55:03;1.73;;;1.63;;
3379;SDS011;1703;51.964;7.642;2023-06-14T11:57:33;2.43;;;2.23;;
3379;SDS011;1703;51.964;7.642;2023-06-14T12:00:02;5.83;;;2.00;;
3379;SDS011;1703;51.964;7.642;2023-06-14T12:02:36;4.50;;;2.17;;
3379;SDS011;1703;51.964;7.642;2023-06-14T12:05:05;2.00;;;1.80;;
3379;SDS011;1703;51.964;7.642;2023-06-14T12:07:36;2.30;;;2.10;;
3379;SDS011;1703;51.964;7.642;2023-06-14T12:10:05;3.20;;;1.70;;
3379;SDS011;1703;51.964;7.642;2023-06-14T12:12:35;2.00;;;1.90;;
3379;SDS011;1703;51.964;7.642;2023-06-14T12:15:03;2.03;;;1.90;;
3379;SDS011;1703;51.964;7.642;2023-06-14T12:17:32;2.33;;;1.90;;
3379;SDS011;1703;51.964;7.642;2023-06-14T12:20:04;2.50;;;2.00;;
3379;SDS011;1703;51.964;7.642;2023-06-14T12:22:37;7.47;;;2.40;;
3379;SDS011;1703;51.964;7.642;2023-06-14T12:25:04;5.50;;;1.93;;
3379;SDS011;1703;51.964;7.642;2023-06-14T12:27:31;3.13;;;1.73;;
3379;SDS011;1703;51.964;7.642;2023-06-14T12:29:58;2.30;;;2.10;;
3379;SDS011;1703;51.964;7.642;2023-06-14T12:32:26;2.67;;;1.90;;
3379;SDS011;1703;51.964;7.642;2023-06-14T12:34:53;1.60;;;1.50;;
3379;SDS011;1703;51.964;7.642;2023-06-14T12:37:20;2.77;;;1.87;;
3379;SDS011;1703;51.964;7.642;2023-06-14T12:39:48;7.93;;;2.00;;
3379;SDS011;1703;51.964;7.642;2023-06-14T12:42:16;3.10;;;2.53;;
3379;SDS011;1703;51.964;7.642;2023-06-14T12:44:43;1.80;;;1.70;;
3379;SDS011;1703;51.964;7.642;2023-06-14T12:47:10;1.80;;;1.70;;
3379;SDS011;1703;51.964;7.642;2023-06-14T12:49:38;2.70;;;1.93;;
3379;SDS011;1703;51.964;7.642;2023-06-14T12:52:06;1.57;;;1.47;;
3379;SDS011;1703;51.964;7.642;2023-06-14T12:54:34;2.80;;;1.60;;
3379;SDS011;1703;51.964;7.642;2023-06-14T12:57:02;2.50;;;1.77;;
3379;SDS011;1703;51.964;7.642;2023-06-14T12:59:30;2.93;;;2.03;;
3379;SDS011;1703;51.964;7.642;2023-06-14T13:01:59;1.87;;;1.77;;
3379;SDS011;1703;51.964;7.642;2023-06-14T13:04:36;2.90;;;2.33;;
3379;SDS011;1703;51.964;7.642;2023-06-14T13:07:03;2.90;;;1.80;;
3379;SDS011;1703;51.964;7.642;2023-06-14T13:09:30;4.03;;;2.33;;
3379;SDS011;1703;51.964;7.642;2023-06-14T13:11:57;2.93;;;2.03;;
3379;SDS011;1703;51.964;7.642;2023-06-14T13:14:26;2.37;;;2.10;;
3379;SDS011;1703;51.964;7.642;2023-06-14T13:16:52;3.60;;;1.63;;
3379;SDS011;1703;51.964;7.642;2023-06-14T13:19:20;2.17;;;1.80;;
3379;SDS011;1703;51.964;7.642;2023-06-14T13:21:47;2.57;;;1.90;;
3379;SDS011;1703;51.964;7.642;2023-06-14T13:24:14;7.10;;;2.17;;
3379;SDS011;1703;51.964;7.642;2023-06-14T13:26:41;2.47;;;2.27;;
3379;SDS011;1703;51.964;7.642;2023-06-14T13:29:09;4.20;;;1.67;;
3379;SDS011;1703;51.964;7.642;2023-06-14T13:31:37;5.33;;;2.03;;
3379;SDS011;1703;51.964;7.642;2023-06-14T13:34:04;2.17;;;1.97;;
3379;SDS011;1703;51.964;7.642;2023-06-14T13:36:30;2.60;;;2.40;;
3379;SDS011;1703;51.964;7.642;2023-06-14T13:38:57;1.87;;;1.73;;
3379;SDS011;1703;51.964;7.642;2023-06-14T13:41:25;3.42;;;2.00;;
3379;SDS011;1703;51.964;7.642;2023-06-14T13:43:56;2.20;;;2.00;;
3379;SDS011;1703;51.964;7.642;2023-06-14T13:46:24;4.03;;;2.20;;
3379;SDS011;1703;51.964;7.642;2023-06-14T13:48:52;2.13;;;1.92;;
3379;SDS011;1703;51.964;7.642;2023-06-14T13:51:19;2.08;;;1.88;;
3379;SDS011;1703;51.964;7.642;2023-06-14T13:53:46;3.05;;;2.22;;
3379;SDS011;1703;51.964;7.642;2023-06-14T13:56:14;2.45;;;1.83;;
3379;SDS011;1703;51.964;7.642;2023-06-14T13:58:40;2.13;;;2.00;;
3379;SDS011;1703;51.964;7.642;2023-06-14T14:01:08;3.35;;;1.90;;
3379;SDS011;1703;51.964;7.642;2023-06-14T14:03:36;4.03;;;2.20;;
3379;SDS011;1703;51.964;7.642;2023-06-14T14:06:04;2.47;;;1.63;;
3379;SDS011;1703;51.964;7.642;2023-06-14T14:08:32;2.00;;;1.90;;
3379;SDS011;1703;51.964;7.642;2023-06-14T14:10:59;2.28;;;2.08;;
3379;SDS011;1703;51.964;7.642;2023-06-14T14:13:26;5.57;;;2.20;;
3379;SDS011;1703;51.964;7.642;2023-06-14T14:15:52;1.77;;;1.67;;
3379;SDS011;1703;51.964;7.642;2023-06-14T14:18:20;1.80;;;1.70;;
3379;SDS011;1703;51.964;7.642;2023-06-14T14:20:46;3.47;;;2.10;;
3379;SDS011;1703;51.964;7.642;2023-06-14T14:23:15;2.47;;;2.20;;
3379;SDS011;1703;51.964;7.642;2023-06-14T14:25:42;2.33;;;2.13;;
3379;SDS011;1703;51.964;7.642;2023-06-14T14:28:09;2.93;;;2.50;;
3379;SDS011;1703;51.964;7.642;2023-06-14T14:30:36;3.43;;;2.20;;
3379;SDS011;1703;51.964;7.642;2023-06-14T14:33:04;3.07;;;2.17;;
3379;SDS011;1703;51.964;7.642;2023-06-14T14:38:00;4.57;;;2.30;;
3379;SDS011;1703;51.964;7.642;2023-06-14T14:40:29;5.23;;;2.07;;
3379;SDS011;1703;51.964;7.642;2023-06-14T14:42:56;4.07;;;2.03;;
3379;SDS011;1703;51.964;7.642;2023-06-14T14:45:23;2.20;;;1.77;;
3379;SDS011;1703;51.964;7.642;2023-06-14T14:47:50;3.37;;;2.10;;
3379;SDS011;1703;51.964;7.642;2023-06-14T14:50:17;4.57;;;1.90;;
3379;SDS011;1703;51.964;7.642;2023-06-14T14:52:44;2.10;;;1.90;;
3379;SDS011;1703;51.964;7.642;2023-06-14T14:55:11;2.10;;;1.80;;
3379;SDS011;1703;51.964;7.642;2023-06-14T14:57:39;2.93;;;2.17;;
3379;SDS011;1703;51.964;7.642;2023-06-14T15:00:07;2.03;;;1.83;;
3379;SDS011;1703;51.964;7.642;2023-06-14T15:02:34;4.53;;;2.30;;
3379;SDS011;1703;51.964;7.642;2023-06-14T15:05:01;4.93;;;2.40;;
3379;SDS011;1703;51.964;7.642;2023-06-14T15:07:28;5.53;;;1.90;;
3379;SDS011;1703;51.964;7.642;2023-06-14T15:09:58;2.07;;;1.83;;
3379;SDS011;1703;51.964;7.642;2023-06-14T15:12:25;2.03;;;1.93;;
3379;SDS011;1703;51.964;7.642;2023-06-14T15:14:53;3.33;;;1.60;;
3379;SDS011;1703;51.964;7.642;2023-06-14T15:17:21;2.40;;;2.20;;
3379;SDS011;1703;51.964;7.642;2023-06-14T15:19:49;2.57;;;2.37;;
3379;SDS011;1703;51.964;7.642;2023-06-14T15:22:16;2.97;;;2.77;;
3379;SDS011;1703;51.964;7.642;2023-06-14T15:24:43;2.33;;;2.13;;
3379;SDS011;1703;51.964;7.642;2023-06-14T15:27:10;1.97;;;1.87;;